Time;durP1;ratioP1;P1;durP2;ratioP2;P2;SDS_P1;SDS_P2;PMS_P1;PMS_P2;Temp;Humidity;BMP_temperature;BMP_pressure;BME280_temperature;BME280_humidity;BME280_pressure;Samples;Min_cycle;Max_cycle;Signal;HPM_P1;HPM_P2
2024/02/04 00:00:19;;;;;;;10.98;8.43;;;;;;;8.54;100.00;102235.06;5074885;28;20037;-70
2024/02/04 00:02:45;;;;;;;14.18;9.13;;;;;;;8.54;100.00;102235.06;5024723;28;20531;-70
2024/02/04 00:05:10;;;;;;;12.93;8.82;;;;;;;8.50;100.00;102236.63;5058145;28;20032;-70
2024/02/04 00:07:36;;;;;;;12.35;8.82;;;;;;;8.54;100.00;102231.44;5074780;28;20032;-70
2024/02/04 00:10:01;;;;;;;14.02;9.48;;;;;;;8.52;100.00;102228.91;5072268;28;20070;-70
2024/02/04 00:12:27;;;;;;;13.43;9.43;;;;;;;8.53;100.00;102243.63;5069071;28;20040;-70
2024/02/04 00:14:52;;;;;;;12.75;9.05;;;;;;;8.51;100.00;102238.31;5075795;28;20025;-70
2024/02/04 00:17:17;;;;;;;14.63;8.23;;;;;;;8.47;100.00;102239.88;5057706;28;20082;-70
2024/02/04 00:19:43;;;;;;;13.35;9.27;;;;;;;8.49;100.00;102246.84;5057794;28;20032;-70
2024/02/04 00:22:09;;;;;;;14.93;9.60;;;;;;;8.49;100.00;102238.53;5057938;28;20040;-70
2024/02/04 00:24:34;;;;;;;13.75;8.90;;;;;;;8.48;100.00;102245.16;5074541;28;20036;-71
2024/02/04 00:26:59;;;;;;;13.60;9.48;;;;;;;8.50;100.00;102244.94;5057859;28;20464;-70
2024/02/04 00:29:25;;;;;;;12.95;9.77;;;;;;;8.48;100.00;102247.94;5057726;28;20085;-71
2024/02/04 00:31:50;;;;;;;13.32;9.35;;;;;;;8.47;100.00;102245.41;5057841;28;20510;-70
2024/02/04 00:34:16;;;;;;;14.30;9.25;;;;;;;8.47;100.00;102250.94;5075515;28;20028;-70
2024/02/04 00:36:41;;;;;;;12.43;9.18;;;;;;;8.47;100.00;102248.19;5057734;28;20059;-70
2024/02/04 00:39:07;;;;;;;14.38;9.75;;;;;;;8.45;100.00;102242.88;5057614;28;20032;-70
2024/02/04 00:41:33;;;;;;;16.20;10.40;;;;;;;8.44;100.00;102246.72;5057729;28;20075;-70
2024/02/04 00:43:59;;;;;;;13.25;8.93;;;;;;;8.47;100.00;102239.88;5054043;28;20020;-70
2024/02/04 00:46:24;;;;;;;14.38;9.45;;;;;;;8.45;100.00;102228.19;5049352;28;20511;-70
2024/02/04 00:48:50;;;;;;;16.73;10.13;;;;;;;8.48;100.00;102236.00;5040822;28;20036;-70
2024/02/04 00:51:17;;;;;;;13.60;9.75;;;;;;;8.44;100.00;102232.00;5040790;28;20523;-71
2024/02/04 00:53:43;;;;;;;16.15;10.65;;;;;;;8.45;100.00;102239.25;5075279;28;20024;-70
2024/02/04 00:56:09;;;;;;;16.70;9.93;;;;;;;8.43;100.00;102233.94;5045935;28;20024;-70
2024/02/04 00:58:35;;;;;;;16.00;10.05;;;;;;;8.45;100.00;102230.97;5074118;28;20090;-70
2024/02/04 01:01:00;;;;;;;14.13;9.60;;;;;;;8.46;100.00;102235.41;5054453;28;20028;-70
2024/02/04 01:03:26;;;;;;;16.27;10.30;;;;;;;8.46;100.00;102243.72;5073968;28;20497;-71
2024/02/04 01:05:51;;;;;;;12.95;9.40;;;;;;;8.42;100.00;102237.81;5057481;28;20029;-70
2024/02/04 01:08:17;;;;;;;13.35;9.40;;;;;;;8.46;100.00;102233.47;5074171;28;20028;-70
2024/02/04 01:10:42;;;;;;;16.60;9.55;;;;;;;8.44;100.00;102232.00;5057514;28;20027;-70
2024/02/04 01:13:07;;;;;;;15.07;10.15;;;;;;;8.43;100.00;102233.09;5040725;28;20028;-70
2024/02/04 01:15:33;;;;;;;17.23;10.68;;;;;;;8.46;100.00;102224.31;5040626;28;20021;-70
2024/02/04 01:17:58;;;;;;;12.55;9.52;;;;;;;8.44;100.00;102226.47;5073708;28;20038;-70
2024/02/04 01:20:24;;;;;;;12.38;9.13;;;;;;;8.42;100.00;102221.19;5075441;28;20028;-71
2024/02/04 01:22:49;;;;;;;14.30;9.80;;;;;;;8.46;100.00;102210.47;5057305;28;20052;-70
2024/02/04 01:25:15;;;;;;;12.80;9.55;;;;;;;8.43;100.00;102205.44;5057881;28;20024;-71
2024/02/04 01:27:40;;;;;;;14.70;9.50;;;;;;;8.44;100.00;102198.78;5076648;28;20594;-71
2024/02/04 01:30:06;;;;;;;14.50;9.93;;;;;;;8.44;100.00;102190.47;5053821;28;20230;-70
2024/02/04 01:32:31;;;;;;;12.80;9.10;;;;;;;8.43;100.00;102177.75;5086234;28;20035;-70
2024/02/04 01:34:57;;;;;;;11.85;9.38;;;;;;;8.43;100.00;102164.72;5077636;28;20040;-70
2024/02/04 01:37:23;;;;;;;12.63;9.57;;;;;;;8.43;100.00;102161.13;5077634;28;20032;-71
2024/02/04 01:39:48;;;;;;;15.73;8.75;;;;;;;8.44;100.00;102158.13;5061009;28;20033;-70
2024/02/04 01:42:14;;;;;;;14.55;10.13;;;;;;;8.46;100.00;102158.72;5060921;28;20039;-70
2024/02/04 01:44:39;;;;;;;12.70;8.65;;;;;;;8.47;100.00;102162.34;5075017;28;20444;-70
2024/02/04 01:47:05;;;;;;;13.80;9.38;;;;;;;8.43;100.00;102156.41;5060858;28;20045;-71
2024/02/04 01:49:30;;;;;;;13.77;9.40;;;;;;;8.42;100.00;102157.53;5023974;28;20051;-70
2024/02/04 01:51:56;;;;;;;11.95;9.20;;;;;;;8.43;100.00;102166.66;5039278;28;20029;-71
2024/02/04 01:54:22;;;;;;;12.02;8.65;;;;;;;8.44;100.00;102162.78;5036525;28;20048;-70
2024/02/04 01:56:48;;;;;;;12.88;9.18;;;;;;;8.39;100.00;102165.47;5040558;28;20033;-70
2024/02/04 01:59:13;;;;;;;11.45;9.00;;;;;;;8.39;100.00;102160.78;5040648;28;20029;-71
2024/02/04 02:01:39;;;;;;;13.68;9.05;;;;;;;8.36;100.00;102161.22;5040813;28;20064;-70
2024/02/04 02:04:05;;;;;;;13.15;8.75;;;;;;;8.37;100.00;102162.91;5023743;28;20040;-70
2024/02/04 02:06:31;;;;;;;13.43;8.57;;;;;;;8.38;100.00;102150.72;5057123;28;20504;-70
2024/02/04 02:08:56;;;;;;;10.27;8.00;;;;;;;8.42;100.00;102154.75;5040357;28;20029;-70
2024/02/04 02:11:27;;;;;;;11.55;8.25;;;;;;;8.41;100.00;102153.06;5040556;28;20511;-70
2024/02/04 02:13:57;;;;;;;14.27;8.32;;;;;;;8.40;100.00;102145.84;5040278;28;20438;-70
2024/02/04 02:16:23;;;;;;;11.00;7.65;;;;;;;8.39;100.00;102148.84;5024105;28;20079;-71
2024/02/04 02:18:52;;;;;;;11.20;7.80;;;;;;;8.43;100.00;102155.59;5039948;28;20096;-71
2024/02/04 02:21:30;;;;;;;13.57;8.10;;;;;;;8.36;100.00;102144.59;5023991;28;20505;-70
2024/02/04 02:24:12;;;;;;;10.55;7.38;;;;;;;8.40;100.00;102139.47;5040540;28;20068;-70
2024/02/04 02:26:40;;;;;;;15.05;7.70;;;;;;;8.40;100.00;102134.75;5051909;28;20428;-70
2024/02/04 02:29:08;;;;;;;10.50;7.00;;;;;;;8.40;100.00;102139.47;5007889;28;20033;-70
2024/02/04 02:31:34;;;;;;;12.45;7.65;;;;;;;8.38;100.00;102141.59;5040414;28;20036;-70
2024/02/04 02:34:00;;;;;;;11.10;7.07;;;;;;;8.38;100.00;102145.19;5040153;28;20067;-70
2024/02/04 02:36:25;;;;;;;11.60;7.50;;;;;;;8.38;100.00;102141.59;5022604;28;20041;-71
2024/02/04 02:39:42;;;;;;;12.82;7.15;;;;;;;8.37;100.00;102139.91;5039405;28;20522;-70
2024/02/04 02:42:08;;;;;;;15.98;8.27;;;;;;;8.36;100.00;102139.06;5021954;28;20048;-70
2024/02/04 02:44:33;;;;;;;10.90;7.00;;;;;;;8.34;100.00;102145.94;5038102;28;20485;-70
2024/02/04 02:46:59;;;;;;;16.17;7.78;;;;;;;8.38;100.00;102136.03;5043096;28;20074;-70
2024/02/04 02:49:24;;;;;;;11.18;7.68;;;;;;;8.39;100.00;102141.38;5059516;28;20040;-70
2024/02/04 02:51:50;;;;;;;11.13;7.80;;;;;;;8.37;100.00;102145.44;5059151;28;20187;-70
2024/02/04 02:54:15;;;;;;;11.20;7.88;;;;;;;8.34;100.00;102143.16;5059634;28;20032;-70
2024/02/04 02:56:40;;;;;;;12.27;8.75;;;;;;;8.33;100.00;102147.00;5076365;28;20107;-70
2024/02/04 02:59:06;;;;;;;12.27;7.95;;;;;;;8.37;100.00;102146.28;5056236;28;20037;-70
2024/02/04 03:01:31;;;;;;;12.82;8.40;;;;;;;8.35;100.00;102134.59;5076814;28;20067;-70
2024/02/04 03:03:57;;;;;;;14.60;8.98;;;;;;;8.32;100.00;102137.00;5059224;28;20028;-71
2024/02/04 03:06:22;;;;;;;12.27;8.27;;;;;;;8.32;100.00;102137.84;5059590;28;20025;-70
2024/02/04 03:08:48;;;;;;;14.52;8.73;;;;;;;8.33;100.00;102138.69;5059250;28;20059;-70
2024/02/04 03:11:13;;;;;;;14.00;8.38;;;;;;;8.31;100.00;102140.88;5059315;28;20032;-70
2024/02/04 03:13:39;;;;;;;12.52;8.98;;;;;;;8.31;100.00;102144.47;5075934;28;20040;-70
2024/02/04 03:16:10;;;;;;;10.10;7.55;;;;;;;8.32;100.00;102142.53;5042470;28;20029;-70
2024/02/04 03:18:38;;;;;;;15.80;8.13;;;;;;;8.34;100.00;102144.00;5058881;28;20440;-70
2024/02/04 03:21:04;;;;;;;13.43;7.95;;;;;;;8.32;100.00;102131.47;5059141;28;20090;-70
2024/02/04 03:23:30;;;;;;;13.90;8.95;;;;;;;8.33;100.00;102135.91;5075713;28;20033;-70
2024/02/04 03:25:55;;;;;;;15.70;8.68;;;;;;;8.30;100.00;102140.00;5075556;28;20028;-71
2024/02/04 03:28:21;;;;;;;16.15;8.80;;;;;;;8.32;100.00;102134.25;5058958;28;20400;-70
2024/02/04 03:30:46;;;;;;;12.90;8.48;;;;;;;8.31;100.00;102127.88;5075667;28;20082;-70
2024/02/04 03:33:12;;;;;;;14.73;8.60;;;;;;;8.35;100.00;102139.28;5084682;28;20111;-70
2024/02/04 03:35:37;;;;;;;13.07;8.73;;;;;;;8.31;100.00;102136.16;5075369;28;20032;-70
2024/02/04 03:38:03;;;;;;;13.65;8.85;;;;;;;8.33;100.00;102138.69;5075196;28;20036;-70
2024/02/04 03:40:28;;;;;;;12.90;9.18;;;;;;;8.29;100.00;102144.69;5075354;28;20038;-70
2024/02/04 03:42:53;;;;;;;14.65;9.38;;;;;;;8.28;100.00;102148.56;5065471;28;20036;-71
2024/02/04 03:45:19;;;;;;;13.23;8.52;;;;;;;8.31;100.00;102135.34;5067154;28;20421;-70
2024/02/04 03:47:45;;;;;;;13.57;8.35;;;;;;;8.31;100.00;102135.34;5091870;28;20048;-70
2024/02/04 03:50:10;;;;;;;14.15;8.70;;;;;;;8.31;100.00;102135.34;5076544;28;20624;-70
2024/02/04 03:52:36;;;;;;;13.57;8.30;;;;;;;8.29;100.00;102130.88;5034019;28;20044;-70
2024/02/04 03:55:01;;;;;;;13.45;9.25;;;;;;;8.26;100.00;102131.34;5052572;28;20036;-70
2024/02/04 03:57:27;;;;;;;16.20;8.52;;;;;;;8.26;100.00;102131.34;5083015;28;20036;-71
2024/02/04 03:59:52;;;;;;;13.50;8.15;;;;;;;8.25;100.00;102135.19;5065274;28;20477;-71
2024/02/04 04:02:18;;;;;;;12.93;8.48;;;;;;;8.26;100.00;102136.03;5033840;28;20028;-70
2024/02/04 04:04:47;;;;;;;13.27;8.23;;;;;;;8.29;100.00;102143.88;5066077;28;20449;-70
2024/02/04 04:07:12;;;;;;;15.38;8.70;;;;;;;8.27;100.00;102141.34;5091868;28;20048;-70
2024/02/04 04:09:38;;;;;;;11.63;8.05;;;;;;;8.27;100.00;102130.28;5048276;28;20048;-70
2024/02/04 04:12:03;;;;;;;14.95;8.40;;;;;;;8.27;100.00;102135.81;5096637;28;20036;-70
2024/02/04 04:14:29;;;;;;;15.63;7.88;;;;;;;8.26;100.00;102134.13;5096594;28;20028;-70
2024/02/04 04:16:54;;;;;;;13.68;8.20;;;;;;;8.25;100.00;102132.44;5061188;28;20040;-70
2024/02/04 04:19:20;;;;;;;12.13;7.68;;;;;;;8.25;100.00;102123.28;5067591;28;20435;-71
2024/02/04 04:21:46;;;;;;;13.23;7.65;;;;;;;8.23;100.00;102134.59;5061321;28;20032;-70
2024/02/04 04:24:11;;;;;;;15.52;8.23;;;;;;;8.22;100.00;102138.44;5067814;28;20031;-70
2024/02/04 04:26:39;;;;;;;14.18;7.47;;;;;;;8.20;100.00;102139.78;5062048;28;20047;-70
2024/02/04 04:29:04;;;;;;;14.27;7.55;;;;;;;8.22;100.00;102127.38;5072663;28;20039;-70
2024/02/04 04:31:29;;;;;;;10.57;6.80;;;;;;;8.25;100.00;102131.59;5044411;28;20035;-70
2024/02/04 04:33:55;;;;;;;13.15;6.70;;;;;;;8.23;100.00;102134.59;5047528;28;20032;-70
2024/02/04 04:36:20;;;;;;;12.90;6.43;;;;;;;8.22;100.00;102135.69;5044470;28;20028;-70
2024/02/04 04:38:49;;;;;;;14.07;6.70;;;;;;;8.25;100.00;102131.59;5063682;28;20032;-70
2024/02/04 04:41:15;;;;;;;16.38;6.55;;;;;;;8.21;100.00;102131.22;5061518;28;20039;-70
2024/02/04 04:43:40;;;;;;;12.88;6.47;;;;;;;8.27;100.00;102132.19;5082906;28;20024;-70
2024/02/04 04:46:06;;;;;;;11.88;6.55;;;;;;;8.26;100.00;102130.50;5055309;28;20105;-70
2024/02/04 04:48:31;;;;;;;11.95;6.00;;;;;;;8.27;100.00;102127.50;5051852;28;20036;-70
2024/02/04 04:50:57;;;;;;;15.23;6.15;;;;;;;8.26;100.00;102128.56;5068505;28;20034;-70
2024/02/04 04:53:22;;;;;;;10.63;5.45;;;;;;;8.25;100.00;102132.44;5062362;28;20460;-71
2024/02/04 04:55:47;;;;;;;12.70;5.38;;;;;;;8.24;100.00;102127.97;5057592;28;20075;-70
2024/02/04 04:58:13;;;;;;;10.23;5.75;;;;;;;8.22;100.00;102116.31;5048236;28;20669;-70
2024/02/04 05:00:38;;;;;;;13.23;5.80;;;;;;;8.22;100.00;102126.53;5092810;28;20035;-70
2024/02/04 05:03:04;;;;;;;8.32;4.78;;;;;;;8.23;100.00;102122.69;5084579;28;20381;-70
2024/02/04 05:05:29;;;;;;;10.25;5.47;;;;;;;8.20;100.00;102114.88;5095687;28;20154;-70
2024/02/04 05:07:55;;;;;;;10.20;5.38;;;;;;;8.18;100.00;102115.09;5084985;28;20050;-70
2024/02/04 05:10:20;;;;;;;13.10;5.97;;;;;;;8.22;100.00;102109.94;5068962;28;20032;-70
2024/02/04 05:12:46;;;;;;;10.60;4.85;;;;;;;8.22;100.00;102110.78;5068040;28;20054;-70
2024/02/04 05:15:11;;;;;;;9.27;5.10;;;;;;;8.23;100.00;102101.38;5060425;28;20028;-70
2024/02/04 05:17:37;;;;;;;13.30;5.90;;;;;;;8.22;100.00;102107.16;5084292;28;20047;-70
2024/02/04 05:20:04;;;;;;;11.57;5.80;;;;;;;8.21;100.00;102119.31;5052122;28;20071;-70
2024/02/04 05:22:29;;;;;;;11.07;5.57;;;;;;;8.19;100.00;102124.22;5072348;28;20040;-71
2024/02/04 05:24:55;;;;;;;11.80;5.47;;;;;;;8.19;100.00;102116.78;5043867;28;20613;-70
2024/02/04 05:27:20;;;;;;;9.73;5.53;;;;;;;8.20;100.00;102118.47;5066756;28;20039;-70
2024/02/04 05:29:45;;;;;;;15.25;5.93;;;;;;;8.22;100.00;102124.63;5043472;28;20528;-70
2024/02/04 05:32:11;;;;;;;14.07;5.43;;;;;;;8.20;100.00;102124.00;5084521;28;20031;-71
2024/02/04 05:34:37;;;;;;;12.95;6.35;;;;;;;8.20;100.00;102121.22;5085391;28;20035;-70
2024/02/04 05:37:03;;;;;;;13.90;6.00;;;;;;;8.20;100.00;102124.00;5067302;28;20032;-70
2024/02/04 05:39:28;;;;;;;9.85;5.97;;;;;;;8.20;100.00;102123.16;5085408;28;20036;-70
2024/02/04 05:41:54;;;;;;;10.80;5.82;;;;;;;8.20;100.00;102120.41;5047790;28;20433;-70
2024/02/04 05:44:19;;;;;;;16.65;6.53;;;;;;;8.22;100.00;102115.47;5060370;28;20035;-71
2024/02/04 05:46:45;;;;;;;15.35;6.53;;;;;;;8.21;100.00;102120.13;5054338;28;20533;-70
2024/02/04 05:49:11;;;;;;;11.75;6.55;;;;;;;8.20;100.00;102120.41;5056610;28;20109;-70
2024/02/04 05:51:40;;;;;;;10.90;6.28;;;;;;;8.23;100.00;102109.69;5065602;28;20032;-70
2024/02/04 05:54:05;;;;;;;13.10;7.20;;;;;;;8.21;100.00;102111.84;5076505;28;20064;-70
2024/02/04 05:56:31;;;;;;;13.95;6.10;;;;;;;8.20;100.00;102112.09;5068184;28;20031;-70
2024/02/04 05:58:57;;;;;;;11.05;6.13;;;;;;;8.19;100.00;102116.78;5066878;28;20039;-70
2024/02/04 06:01:22;;;;;;;11.70;6.13;;;;;;;8.19;100.00;102122.31;5075545;28;20055;-70
2024/02/04 06:03:47;;;;;;;12.95;6.68;;;;;;;8.20;100.00;102121.22;5076734;28;20028;-70
2024/02/04 06:06:19;;;;;;;12.00;6.10;;;;;;;8.19;100.00;102115.91;5067880;28;20472;-70
2024/02/04 06:08:44;;;;;;;11.30;6.28;;;;;;;8.18;100.00;102117.84;5060498;28;20024;-70
2024/02/04 06:11:11;;;;;;;15.30;7.10;;;;;;;8.17;100.00;102118.94;5064132;28;20488;-70
2024/02/04 06:13:38;;;;;;;13.68;5.80;;;;;;;8.17;100.00;102121.72;5067119;28;20032;-70
2024/02/04 06:16:03;;;;;;;16.88;6.63;;;;;;;8.17;100.00;102118.94;5050501;28;20497;-70
2024/02/04 06:18:29;;;;;;;14.65;5.82;;;;;;;8.18;100.00;102126.16;5051255;28;20020;-70
2024/02/04 06:20:54;;;;;;;14.07;5.43;;;;;;;8.16;100.00;102121.94;5048214;28;20090;-71
2024/02/04 06:23:20;;;;;;;13.18;5.05;;;;;;;8.17;100.00;102124.47;5063524;28;20036;-70
2024/02/04 06:25:45;;;;;;;11.95;5.53;;;;;;;8.14;100.00;102129.66;5073813;28;20381;-70
2024/02/04 06:28:11;;;;;;;14.68;5.65;;;;;;;8.14;100.00;102121.34;5063468;28;20032;-70
2024/02/04 06:30:36;;;;;;;17.80;5.03;;;;;;;8.10;100.00;102126.50;5085276;28;20036;-70
2024/02/04 06:33:03;;;;;;;14.82;4.72;;;;;;;8.11;100.00;102122.69;5053929;28;20024;-70
2024/02/04 06:35:28;;;;;;;13.80;5.00;;;;;;;8.12;100.00;102126.28;5085491;28;20085;-70
2024/02/04 06:37:54;;;;;;;12.90;5.25;;;;;;;8.15;100.00;102131.34;5063166;28;20028;-70
2024/02/04 06:40:19;;;;;;;14.38;5.10;;;;;;;8.12;100.00;102129.03;5097992;28;20039;-70
2024/02/04 06:42:45;;;;;;;15.48;4.72;;;;;;;8.09;100.00;102141.44;5051732;28;20491;-70
2024/02/04 06:45:10;;;;;;;14.25;4.90;;;;;;;8.10;100.00;102131.19;5058318;28;20044;-70
2024/02/04 06:47:36;;;;;;;15.60;4.55;;;;;;;8.10;100.00;102139.50;5077901;28;20491;-70
2024/02/04 06:50:05;;;;;;;14.10;5.05;;;;;;;8.07;100.00;102133.34;5045207;28;20062;-70
2024/02/04 06:52:30;;;;;;;14.88;6.47;;;;;;;8.07;100.00;102125.06;5079644;28;20090;-70
2024/02/04 06:54:56;;;;;;;30.23;15.98;;;;;;;8.11;100.00;102142.03;5070872;28;20032;-70
2024/02/04 06:57:21;;;;;;;21.58;11.52;;;;;;;8.10;100.00;102142.28;5079424;28;20036;-70
2024/02/04 06:59:47;;;;;;;25.13;9.88;;;;;;;8.10;100.00;102139.50;5057251;28;20031;-70
2024/02/04 07:02:12;;;;;;;17.48;9.57;;;;;;;8.12;100.00;102146.50;5063423;28;20031;-70
2024/02/04 07:04:38;;;;;;;20.38;8.77;;;;;;;8.10;100.00;102137.56;5066332;28;20054;-70
2024/02/04 07:07:03;;;;;;;17.17;8.13;;;;;;;8.10;100.00;102132.03;5085691;28;20020;-70
2024/02/04 07:09:29;;;;;;;16.33;7.63;;;;;;;8.11;100.00;102127.34;5071818;28;20082;-70
2024/02/04 07:11:54;;;;;;;15.70;6.78;;;;;;;8.12;100.00;102129.88;5097341;28;20393;-70
2024/02/04 07:14:19;;;;;;;15.52;7.13;;;;;;;8.10;100.00;102123.72;5053161;28;20032;-70
2024/02/04 07:16:45;;;;;;;15.45;6.90;;;;;;;8.10;100.00;102126.50;5053521;28;20070;-70
2024/02/04 07:19:10;;;;;;;15.80;7.80;;;;;;;8.13;100.00;102123.25;5036152;28;20039;-70
2024/02/04 07:21:36;;;;;;;12.65;6.32;;;;;;;8.05;100.00;102124.47;5070039;28;20502;-70
2024/02/04 07:24:02;;;;;;;14.15;5.85;;;;;;;8.06;100.00;102133.59;5065792;28;20031;-70
2024/02/04 07:26:28;;;;;;;14.40;6.63;;;;;;;8.06;100.00;102134.44;5079120;28;20099;-70
2024/02/04 07:28:53;;;;;;;17.45;6.05;;;;;;;8.06;100.00;102134.44;5068903;28;20105;-70
2024/02/04 07:31:19;;;;;;;13.43;6.13;;;;;;;8.10;100.00;102126.50;5060506;28;20027;-70
2024/02/04 07:33:45;;;;;;;14.02;5.85;;;;;;;8.10;100.00;102132.03;5048844;28;20033;-70
2024/02/04 07:36:11;;;;;;;15.98;6.00;;;;;;;8.10;100.00;102134.81;5045383;28;20032;-71
2024/02/04 07:38:36;;;;;;;13.45;5.47;;;;;;;8.10;100.00;102134.81;5046239;28;20028;-70
2024/02/04 07:41:02;;;;;;;13.52;5.05;;;;;;;8.10;100.00;102129.28;5078609;28;20077;-70
2024/02/04 07:43:27;;;;;;;13.40;4.50;;;;;;;8.09;100.00;102124.81;5071282;28;20033;-70
2024/02/04 07:45:53;;;;;;;10.68;4.85;;;;;;;8.11;100.00;102141.19;5072641;28;20042;-71
2024/02/04 07:48:19;;;;;;;11.13;5.05;;;;;;;8.10;100.00;102131.19;5048194;28;20032;-70
2024/02/04 07:50:48;;;;;;;12.48;4.85;;;;;;;8.12;100.00;102135.41;5061914;28;20028;-70
2024/02/04 07:53:13;;;;;;;9.90;4.60;;;;;;;8.10;100.00;102126.50;5071726;28;20032;-71
2024/02/04 07:55:39;;;;;;;12.48;5.10;;;;;;;8.10;100.00;102140.34;5062613;28;20039;-70
2024/02/04 07:58:04;;;;;;;17.08;4.82;;;;;;;8.07;100.00;102138.06;5066323;28;20025;-71
2024/02/04 08:00:30;;;;;;;11.95;5.00;;;;;;;8.09;100.00;102141.44;5045949;28;20062;-71
2024/02/04 08:02:55;;;;;;;10.20;4.90;;;;;;;8.10;100.00;102145.88;5049539;28;20036;-70
2024/02/04 08:05:21;;;;;;;12.05;4.50;;;;;;;8.07;100.00;102149.13;5076402;28;20559;-70
2024/02/04 08:07:46;;;;;;;13.85;4.65;;;;;;;8.09;100.00;102152.50;5061473;28;20024;-70
2024/02/04 08:10:12;;;;;;;15.95;4.85;;;;;;;8.11;100.00;102147.59;5096280;28;20032;-70
2024/02/04 08:12:37;;;;;;;15.15;4.85;;;;;;;8.11;100.00;102150.34;5056991;28;20455;-70
2024/02/04 08:15:03;;;;;;;12.23;4.05;;;;;;;8.11;100.00;102150.34;5096314;28;20028;-70
2024/02/04 08:17:30;;;;;;;11.45;4.47;;;;;;;8.12;100.00;102153.94;5064690;28;20476;-71
2024/02/04 08:19:56;;;;;;;11.00;4.35;;;;;;;8.11;100.00;102158.66;5047192;28;20044;-70
2024/02/04 08:22:22;;;;;;;9.90;4.53;;;;;;;8.13;100.00;102156.47;5084478;28;20481;-70
2024/02/04 08:24:48;;;;;;;11.18;4.40;;;;;;;8.14;100.00;102158.16;5094498;28;20020;-70
2024/02/04 08:27:15;;;;;;;12.88;4.45;;;;;;;8.16;100.00;102166.22;5066584;28;20031;-70
2024/02/04 08:29:42;;;;;;;9.38;3.90;;;;;;;8.16;100.00;102161.56;5070009;28;20020;-70
2024/02/04 08:32:07;;;;;;;16.42;4.53;;;;;;;8.18;100.00;102153.84;5070555;28;20501;-70
2024/02/04 08:34:33;;;;;;;13.48;4.25;;;;;;;8.18;100.00;102153.84;5071166;28;20032;-70
2024/02/04 08:36:58;;;;;;;10.45;4.00;;;;;;;8.19;100.00;102150.00;5068868;28;20080;-70
2024/02/04 08:39:25;;;;;;;10.45;4.05;;;;;;;8.21;100.00;102152.50;5069999;28;20089;-70
2024/02/04 08:41:51;;;;;;;13.75;4.78;;;;;;;8.20;100.00;102151.69;5069501;28;20442;-70
2024/02/04 08:44:16;;;;;;;11.13;4.20;;;;;;;8.21;100.00;102164.44;5078264;28;20032;-70
2024/02/04 08:46:42;;;;;;;13.40;3.85;;;;;;;8.28;100.00;102164.34;5047422;28;20397;-70
2024/02/04 08:49:07;;;;;;;11.90;3.65;;;;;;;8.29;100.00;102166.84;5046220;28;20089;-70
2024/02/04 08:51:32;;;;;;;9.27;3.72;;;;;;;8.31;100.00;102160.25;5062178;28;20036;-70
2024/02/04 08:53:58;;;;;;;15.30;4.00;;;;;;;8.29;100.00;102155.78;5068655;28;20020;-70
2024/02/04 08:56:23;;;;;;;12.32;4.20;;;;;;;8.34;100.00;102163.38;5077542;28;20031;-70
2024/02/04 08:58:49;;;;;;;10.98;3.63;;;;;;;8.37;100.00;102162.91;5060317;28;20031;-70
2024/02/04 09:01:14;;;;;;;9.93;3.90;;;;;;;8.41;100.00;102163.28;5095688;28;20154;-70
2024/02/04 09:03:40;;;;;;;12.73;4.28;;;;;;;8.43;100.00;102164.72;5025866;28;20020;-70
2024/02/04 09:06:05;;;;;;;16.10;4.85;;;;;;;8.44;100.00;102165.56;5061170;28;20385;-70
2024/02/04 09:08:31;;;;;;;15.18;4.18;;;;;;;8.46;100.00;102160.63;5054093;28;20089;-70
2024/02/04 09:10:57;;;;;;;12.77;4.05;;;;;;;8.49;100.00;102166.53;5071329;28;20027;-70
2024/02/04 09:13:22;;;;;;;10.05;3.90;;;;;;;8.52;100.00;102162.44;5079596;28;20050;-70
2024/02/04 09:15:49;;;;;;;14.48;4.30;;;;;;;8.53;100.00;102166.91;5057336;28;20082;-70
2024/02/04 09:18:14;;;;;;;12.45;4.35;;;;;;;8.55;100.00;102163.91;5066603;28;20032;-70
2024/02/04 09:20:40;;;;;;;8.75;4.13;;;;;;;8.58;100.00;102160.63;5052486;28;20028;-70
2024/02/04 09:23:05;;;;;;;14.18;4.00;;;;;;;8.61;100.00;102158.25;5023887;28;20544;-70
2024/02/04 09:25:31;;;;;;;12.48;4.53;;;;;;;8.62;100.00;102161.84;5084225;28;20047;-70
2024/02/04 09:27:56;;;;;;;10.80;3.90;;;;;;;8.65;100.00;102164.97;5052961;28;20477;-70
2024/02/04 09:30:22;;;;;;;12.40;3.80;;;;;;;8.68;100.00;102161.72;5086053;28;20036;-71
2024/02/04 09:32:47;;;;;;;12.57;4.68;;;;;;;8.69;100.00;102159.78;5053207;28;20496;-70
2024/02/04 09:35:13;;;;;;;11.05;4.38;;;;;;;8.73;100.00;102152.72;5068671;28;20044;-70
2024/02/04 09:37:38;;;;;;;8.95;3.60;;;;;;;8.77;100.00;102155.81;5095052;28;20024;-70
2024/02/04 09:40:04;;;;;;;16.00;4.35;;;;;;;8.80;100.00;102158.09;5068509;28;20032;-70
2024/02/04 09:42:31;;;;;;;11.98;3.97;;;;;;;8.83;100.00;102154.84;5070472;28;20123;-71
2024/02/04 09:44:56;;;;;;;13.07;4.43;;;;;;;8.88;100.00;102147.50;5053536;28;20164;-70
2024/02/04 09:47:22;;;;;;;16.00;4.68;;;;;;;8.90;100.00;102144.50;5053806;28;20400;-71
2024/02/04 09:49:47;;;;;;;10.82;4.05;;;;;;;8.95;100.00;102147.38;5060797;28;20059;-71
2024/02/04 09:52:13;;;;;;;17.63;4.30;;;;;;;8.98;100.00;102152.44;5069405;28;20069;-70
2024/02/04 09:54:46;;;;;;;16.23;4.70;;;;;;;9.04;100.00;102145.91;5043900;28;20023;-70
2024/02/04 09:57:12;;;;;;;15.02;4.57;;;;;;;9.07;100.00;102142.66;5066986;28;20032;-70
2024/02/04 09:59:38;;;;;;;11.45;3.95;;;;;;;9.12;100.00;102148.31;5068895;28;20097;-70
2024/02/04 10:02:03;;;;;;;14.73;4.68;;;;;;;9.14;100.00;102150.84;5086309;28;20032;-70
2024/02/04 10:04:29;;;;;;;17.55;4.68;;;;;;;9.18;100.00;102150.09;5079171;28;20395;-70
2024/02/04 10:06:54;;;;;;;14.07;4.60;;;;;;;9.22;100.00;102147.69;5046226;28;20116;-70
2024/02/04 10:09:20;;;;;;;11.90;4.30;;;;;;;9.26;100.00;102145.28;5052115;28;20032;-70
2024/02/04 10:11:45;;;;;;;12.43;4.13;;;;;;;9.30;100.00;102149.22;5077704;28;20038;-71
2024/02/04 10:14:11;;;;;;;15.25;4.18;;;;;;;9.34;100.00;102142.94;5052074;28;20039;-70
2024/02/04 10:16:36;;;;;;;17.00;4.38;;;;;;;9.39;100.00;102147.75;5061320;28;20035;-70
2024/02/04 10:19:02;;;;;;;17.10;4.38;;;;;;;9.43;100.00;102146.16;5066005;28;20031;-71
2024/02/04 10:21:28;;;;;;;14.63;5.20;;;;;;;9.48;100.00;102151.81;5065931;28;20036;-70
2024/02/04 10:23:55;;;;;;;17.45;5.20;;;;;;;9.54;100.00;102150.00;5069040;28;20035;-70
2024/02/04 10:26:21;;;;;;;15.48;4.82;;;;;;;9.57;100.00;102150.34;5063495;28;20031;-70
2024/02/04 10:28:47;;;;;;;17.88;4.43;;;;;;;9.62;100.00;102153.22;5066674;28;20028;-70
2024/02/04 10:31:12;;;;;;;15.55;4.25;;;;;;;9.64;100.00;102155.75;5082413;28;20075;-71
2024/02/04 10:33:38;;;;;;;17.80;4.68;;;;;;;9.72;100.00;102162.81;5071052;28;20032;-70
2024/02/04 10:36:04;;;;;;;12.70;4.20;;;;;;;9.75;100.00;102157.63;5072153;28;20024;-70
2024/02/04 10:38:30;;;;;;;15.40;4.18;;;;;;;9.79;100.00;102166.28;5073525;28;20027;-71
2024/02/04 10:40:56;;;;;;;14.48;4.07;;;;;;;9.82;100.00;102163.00;5058273;28;20085;-70
2024/02/04 10:43:21;;;;;;;16.13;4.18;;;;;;;9.86;100.00;102175.28;5051677;28;20024;-71
2024/02/04 10:45:47;;;;;;;15.60;4.68;;;;;;;9.89;100.00;102169.25;5048133;28;20032;-71
2024/02/04 10:48:13;;;;;;;15.80;4.32;;;;;;;9.94;100.00;102176.81;5058573;28;20035;-71
2024/02/04 10:50:38;;;;;;;15.25;4.68;;;;;;;9.97;100.00;102173.53;5069176;28;20035;-71
2024/02/04 10:53:07;;;;;;;14.27;4.03;;;;;;;10.00;100.00;102173.91;5058244;28;20024;-70
2024/02/04 10:55:32;;;;;;;16.83;4.35;;;;;;;10.03;100.00;102175.34;5068445;28;20028;-71
2024/02/04 10:57:58;;;;;;;19.17;5.15;;;;;;;10.07;100.00;102173.75;5069857;28;20036;-71
2024/02/04 11:00:23;;;;;;;12.38;3.97;;;;;;;10.09;100.00;102171.56;5059478;28;20035;-71
2024/02/04 11:02:49;;;;;;;18.65;5.00;;;;;;;10.10;100.00;102169.63;5087091;28;20032;-71
2024/02/04 11:05:16;;;;;;;25.02;5.88;;;;;;;10.13;100.00;102163.56;5062945;28;20507;-71
2024/02/04 11:07:42;;;;;;;15.60;4.57;;;;;;;10.16;100.00;102163.91;5049575;28;20103;-71
2024/02/04 11:10:08;;;;;;;15.65;4.78;;;;;;;10.18;100.00;102172.00;5064762;28;20065;-71